Time;durP1;ratioP1;P1;durP2;ratioP2;P2;SDS_P1;SDS_P2;PMS_P1;PMS_P2;Temp;Humidity;BMP_temperature;BMP_pressure;BME280_temperature;BME280_humidity;BME280_pressure;Samples;Min_cycle;Max_cycle;Signal;HPM_P1;HPM_P2
2021/11/15 00:01:46;;;;;;;99.28;63.17;;;;;;;;;;5075270;28;20386;-83
2021/11/15 00:04:14;;;;;;;93.95;59.45;;;;;;;;;;5058435;28;20040;-83
2021/11/15 00:06:40;;;;;;;98.60;61.50;;;;;;;;;;5061965;28;20033;-83
2021/11/15 00:09:07;;;;;;;94.55;60.40;;;;;;;;;;5078955;28;20036;-83
2021/11/15 00:11:33;;;;;;;96.55;60.30;;;;;;;;;;5062233;28;20074;-83
2021/11/15 00:13:59;;;;;;;95.13;58.88;;;;;;;;;;5062096;28;20385;-83
2021/11/15 00:16:25;;;;;;;93.82;59.53;;;;;;;;;;5078941;28;20116;-83
2021/11/15 00:18:51;;;;;;;94.53;59.97;;;;;;;;;;5078798;28;20106;-83
2021/11/15 00:21:17;;;;;;;94.15;57.58;;;;;;;;;;5092616;28;20032;-83
2021/11/15 00:23:43;;;;;;;92.65;57.13;;;;;;;;;;5100801;28;20024;-83
2021/11/15 00:26:09;;;;;;;84.78;54.45;;;;;;;;;;5101151;28;20103;-83
2021/11/15 00:28:35;;;;;;;85.07;53.75;;;;;;;;;;5100409;28;20020;-82
2021/11/15 00:31:01;;;;;;;87.03;53.97;;;;;;;;;;5100951;28;20028;-83
2021/11/15 00:33:27;;;;;;;84.38;52.88;;;;;;;;;;5100703;28;20024;-83
2021/11/15 00:35:53;;;;;;;86.97;53.10;;;;;;;;;;5100555;28;20016;-83
2021/11/15 00:38:19;;;;;;;83.13;52.45;;;;;;;;;;5100573;28;20073;-82
2021/11/15 00:40:46;;;;;;;78.93;50.78;;;;;;;;;;5100452;28;20047;-83
2021/11/15 00:43:13;;;;;;;82.65;53.42;;;;;;;;;;5100703;28;20356;-83
2021/11/15 00:45:39;;;;;;;83.40;51.03;;;;;;;;;;5100595;28;20032;-83
2021/11/15 00:48:05;;;;;;;79.60;51.15;;;;;;;;;;5100431;28;20424;-83
2021/11/15 00:50:32;;;;;;;81.57;52.58;;;;;;;;;;5100726;28;20103;-83
2021/11/15 00:52:58;;;;;;;88.82;54.75;;;;;;;;;;5100306;28;20034;-83
2021/11/15 00:55:26;;;;;;;92.50;57.13;;;;;;;;;;5100010;28;20097;-83
2021/11/15 00:58:27;;;;;;;91.35;58.33;;;;;;;;;;5099155;28;20413;-83
2021/11/15 01:00:53;;;;;;;98.30;58.00;;;;;;;;;;5085582;28;20073;-82
2021/11/15 01:03:19;;;;;;;104.55;61.92;;;;;;;;;;5099318;28;20122;-83
2021/11/15 01:05:48;;;;;;;98.05;59.45;;;;;;;;;;5100107;28;20028;-83
2021/11/15 01:08:16;;;;;;;100.60;60.58;;;;;;;;;;5087935;28;20028;-83
2021/11/15 01:10:42;;;;;;;99.15;61.92;;;;;;;;;;5078694;28;20027;-83
2021/11/15 01:13:45;;;;;;;96.63;60.67;;;;;;;;;;5079706;28;20191;-83
2021/11/15 01:16:11;;;;;;;97.15;60.97;;;;;;;;;;5090470;28;20032;-84
2021/11/15 01:18:41;;;;;;;102.28;61.65;;;;;;;;;;5099241;28;20027;-84
2021/11/15 01:21:08;;;;;;;95.30;59.88;;;;;;;;;;5093660;28;20025;-84
2021/11/15 01:23:37;;;;;;;97.18;60.17;;;;;;;;;;5078590;28;20036;-83
2021/11/15 01:26:37;;;;;;;96.22;57.35;;;;;;;;;;5098532;28;20024;-84
2021/11/15 01:29:03;;;;;;;91.72;58.42;;;;;;;;;;5093235;28;20044;-83
2021/11/15 01:31:29;;;;;;;88.18;55.17;;;;;;;;;;5079320;28;20025;-84
2021/11/15 01:33:56;;;;;;;88.82;55.13;;;;;;;;;;5078157;28;20075;-83
2021/11/15 01:36:22;;;;;;;91.75;53.90;;;;;;;;;;5079509;28;20025;-83
2021/11/15 01:38:48;;;;;;;84.85;54.28;;;;;;;;;;5078049;28;20058;-83
2021/11/15 01:41:14;;;;;;;79.53;52.08;;;;;;;;;;5078079;28;20028;-83
2021/11/15 01:43:40;;;;;;;88.47;53.67;;;;;;;;;;5090778;28;20366;-83
2021/11/15 01:46:06;;;;;;;86.07;54.08;;;;;;;;;;5098715;28;20078;-83
2021/11/15 01:48:32;;;;;;;84.20;54.70;;;;;;;;;;5099592;28;20313;-82
2021/11/15 01:50:59;;;;;;;87.85;53.75;;;;;;;;;;5098249;28;20030;-83
2021/11/15 01:53:25;;;;;;;93.90;56.47;;;;;;;;;;5098348;28;20034;-83
2021/11/15 01:55:51;;;;;;;87.03;53.67;;;;;;;;;;5098765;28;20020;-83
2021/11/15 01:58:18;;;;;;;83.22;53.63;;;;;;;;;;5099014;28;20031;-83
2021/11/15 02:00:44;;;;;;;82.63;53.10;;;;;;;;;;5098921;28;20059;-84
2021/11/15 02:03:10;;;;;;;86.38;54.47;;;;;;;;;;5097922;28;20027;-83
2021/11/15 02:05:37;;;;;;;82.25;54.25;;;;;;;;;;5098950;28;20035;-83
2021/11/15 02:08:03;;;;;;;87.78;54.80;;;;;;;;;;5089084;28;20035;-83
2021/11/15 02:10:29;;;;;;;83.10;54.13;;;;;;;;;;5081553;28;20021;-83
2021/11/15 02:13:15;;;;;;;90.70;56.53;;;;;;;;;;5078432;28;20056;-83
2021/11/15 02:15:41;;;;;;;95.88;55.67;;;;;;;;;;5094447;28;20073;-83
2021/11/15 02:18:07;;;;;;;90.05;55.90;;;;;;;;;;5093677;28;20048;-83
2021/11/15 02:20:51;;;;;;;90.53;55.58;;;;;;;;;;5077826;28;20027;-83
2021/11/15 02:23:18;;;;;;;91.22;55.40;;;;;;;;;;5098531;28;20516;-83
2021/11/15 02:25:45;;;;;;;96.85;58.30;;;;;;;;;;5098581;28;20020;-83
2021/11/15 02:28:11;;;;;;;93.25;58.45;;;;;;;;;;5087520;28;20070;-83
2021/11/15 02:30:37;;;;;;;90.35;55.80;;;;;;;;;;5077988;28;20107;-83
2021/11/15 02:33:03;;;;;;;92.05;55.53;;;;;;;;;;5078030;28;20032;-83
2021/11/15 02:35:31;;;;;;;89.78;56.67;;;;;;;;;;5077889;28;20058;-83
2021/11/15 02:37:57;;;;;;;90.80;55.72;;;;;;;;;;5077673;28;20025;-83
2021/11/15 02:40:25;;;;;;;85.15;54.05;;;;;;;;;;5078064;28;20028;-83
2021/11/15 02:45:55;;;;;;;84.30;53.28;;;;;;;;;;5077534;28;20453;-83
2021/11/15 02:48:22;;;;;;;88.40;53.90;;;;;;;;;;5089788;28;20038;-83
2021/11/15 02:50:48;;;;;;;87.95;53.72;;;;;;;;;;5077654;28;20505;-83
2021/11/15 02:53:15;;;;;;;89.88;55.15;;;;;;;;;;5069329;28;20043;-83
2021/11/15 02:55:43;;;;;;;86.22;55.05;;;;;;;;;;5078002;28;20124;-83
2021/11/15 02:58:10;;;;;;;85.70;54.00;;;;;;;;;;5078331;28;20119;-83
2021/11/15 03:00:42;;;;;;;92.47;56.20;;;;;;;;;;5097788;28;20419;-83
2021/11/15 03:03:09;;;;;;;99.85;56.03;;;;;;;;;;5098059;28;20066;-83
2021/11/15 03:05:36;;;;;;;82.00;51.80;;;;;;;;;;5097573;28;20118;-81
2021/11/15 03:08:03;;;;;;;85.70;53.17;;;;;;;;;;5076833;28;20040;-83
2021/11/15 03:10:29;;;;;;;86.13;53.63;;;;;;;;;;5091996;28;20292;-83
2021/11/15 03:12:56;;;;;;;92.47;55.47;;;;;;;;;;5089237;28;20025;-83
2021/11/15 03:15:28;;;;;;;89.05;56.10;;;;;;;;;;5091373;28;20028;-83
2021/11/15 03:17:56;;;;;;;84.82;54.53;;;;;;;;;;5097218;28;20310;-83
2021/11/15 03:20:22;;;;;;;84.18;53.53;;;;;;;;;;5088450;28;20036;-82
2021/11/15 03:22:49;;;;;;;85.38;53.00;;;;;;;;;;5080175;28;20054;-84
2021/11/15 03:25:15;;;;;;;84.95;52.95;;;;;;;;;;5077419;28;20426;-84
2021/11/15 03:30:45;;;;;;;88.18;52.35;;;;;;;;;;5086398;28;20078;-84
2021/11/15 03:33:12;;;;;;;93.20;53.35;;;;;;;;;;5097693;28;20024;-84
2021/11/15 03:35:39;;;;;;;81.47;49.20;;;;;;;;;;5097848;28;20016;-84
2021/11/15 03:38:06;;;;;;;78.50;49.25;;;;;;;;;;5077289;28;20446;-84
2021/11/15 03:40:32;;;;;;;74.93;46.67;;;;;;;;;;5079517;28;20366;-84
2021/11/15 03:43:16;;;;;;;79.07;47.03;;;;;;;;;;5081206;28;20330;-83
2021/11/15 03:45:43;;;;;;;69.38;46.03;;;;;;;;;;5088338;28;20036;-84
2021/11/15 03:48:10;;;;;;;69.28;45.65;;;;;;;;;;5090814;28;20433;-83
2021/11/15 03:50:37;;;;;;;69.28;44.83;;;;;;;;;;5094836;28;20321;-84
2021/11/15 03:53:04;;;;;;;64.70;42.90;;;;;;;;;;5101555;28;20020;-84
2021/11/15 03:55:30;;;;;;;65.55;42.50;;;;;;;;;;5100146;28;20128;-84
2021/11/15 03:57:56;;;;;;;61.33;41.30;;;;;;;;;;5100370;28;20133;-84
2021/11/15 04:00:24;;;;;;;68.35;43.38;;;;;;;;;;5095834;28;20422;-84
2021/11/15 04:02:52;;;;;;;72.50;44.13;;;;;;;;;;5080954;28;20467;-84
2021/11/15 04:05:31;;;;;;;74.60;46.78;;;;;;;;;;5081138;28;20103;-84
2021/11/15 04:07:58;;;;;;;76.18;48.08;;;;;;;;;;5079868;28;20027;-84
2021/11/15 04:10:30;;;;;;;74.80;46.88;;;;;;;;;;5081191;28;20025;-84
2021/11/15 04:13:15;;;;;;;73.85;45.92;;;;;;;;;;5080587;28;20476;-84
2021/11/15 04:15:42;;;;;;;70.70;44.70;;;;;;;;;;5081274;28;20158;-84
2021/11/15 04:18:11;;;;;;;72.65;44.10;;;;;;;;;;5096457;28;20114;-83
2021/11/15 04:20:37;;;;;;;78.00;46.10;;;;;;;;;;5083984;28;20054;-85
2021/11/15 04:23:03;;;;;;;75.25;46.28;;;;;;;;;;5081015;28;20318;-85
2021/11/15 04:25:29;;;;;;;78.70;46.70;;;;;;;;;;5080640;28;20024;-85
2021/11/15 04:27:55;;;;;;;82.40;49.80;;;;;;;;;;5080838;28;20020;-85
2021/11/15 04:30:22;;;;;;;87.63;50.13;;;;;;;;;;5080944;28;20027;-85
2021/11/15 04:32:48;;;;;;;82.43;49.92;;;;;;;;;;5084116;28;20024;-85
2021/11/15 04:35:17;;;;;;;91.15;53.95;;;;;;;;;;5083924;28;20020;-85
2021/11/15 04:37:43;;;;;;;92.63;54.15;;;;;;;;;;5101093;28;20024;-85
2021/11/15 04:40:10;;;;;;;88.30;51.25;;;;;;;;;;5098601;28;20022;-85
2021/11/15 04:42:36;;;;;;;95.82;53.85;;;;;;;;;;5080647;28;20016;-84
2021/11/15 04:45:03;;;;;;;94.55;53.72;;;;;;;;;;5080221;28;20046;-85
2021/11/15 04:47:29;;;;;;;102.65;56.10;;;;;;;;;;5091030;28;20413;-84
2021/11/15 04:49:55;;;;;;;94.18;55.63;;;;;;;;;;5100566;28;20416;-84
2021/11/15 04:52:21;;;;;;;95.07;54.40;;;;;;;;;;5100221;28;20030;-84
2021/11/15 04:54:47;;;;;;;99.63;53.13;;;;;;;;;;5100385;28;20039;-85
2021/11/15 04:57:15;;;;;;;104.63;56.10;;;;;;;;;;5089681;28;20313;-84
2021/11/15 05:03:03;;;;;;;110.38;55.28;;;;;;;;;;5058531;28;20028;-84
2021/11/15 05:05:30;;;;;;;113.55;57.08;;;;;;;;;;5044053;28;20057;-84
2021/11/15 05:07:57;;;;;;;116.88;59.88;;;;;;;;;;5078234;28;20501;-84
2021/11/15 05:10:24;;;;;;;120.55;61.05;;;;;;;;;;5077727;28;20032;-84
2021/11/15 05:13:08;;;;;;;152.68;61.60;;;;;;;;;;5077853;28;20016;-84
2021/11/15 05:15:34;;;;;;;139.80;63.58;;;;;;;;;;5077909;28;20461;-84
2021/11/15 05:18:00;;;;;;;126.65;63.63;;;;;;;;;;5076370;28;20032;-83
2021/11/15 05:20:26;;;;;;;158.73;72.22;;;;;;;;;;5057675;28;20021;-84
2021/11/15 05:22:52;;;;;;;142.98;67.90;;;;;;;;;;5040968;28;20029;-84
2021/11/15 05:25:19;;;;;;;140.77;66.18;;;;;;;;;;5045796;28;20036;-83
2021/11/15 05:27:48;;;;;;;155.93;61.55;;;;;;;;;;5077381;28;20079;-83
2021/11/15 05:30:15;;;;;;;139.18;55.63;;;;;;;;;;5066216;28;20033;-83
2021/11/15 05:32:42;;;;;;;86.40;51.35;;;;;;;;;;5060002;28;20040;-83
2021/11/15 05:35:08;;;;;;;91.40;50.38;;;;;;;;;;5076981;28;20058;-83
2021/11/15 05:37:35;;;;;;;87.93;50.78;;;;;;;;;;5078196;28;20040;-83
2021/11/15 05:40:01;;;;;;;95.68;48.75;;;;;;;;;;5078040;28;20028;-84
2021/11/15 05:42:27;;;;;;;87.75;48.97;;;;;;;;;;5079515;28;20366;-84
2021/11/15 05:45:11;;;;;;;90.32;49.45;;;;;;;;;;5094044;28;20028;-84
2021/11/15 05:47:38;;;;;;;115.28;54.50;;;;;;;;;;5078910;28;20321;-84
2021/11/15 05:50:05;;;;;;;117.40;51.97;;;;;;;;;;5079031;28;20020;-84
2021/11/15 05:52:31;;;;;;;83.25;51.55;;;;;;;;;;5079115;28;20024;-84
2021/11/15 05:54:57;;;;;;;170.50;60.10;;;;;;;;;;5079240;28;20073;-84
2021/11/15 05:57:23;;;;;;;125.50;60.55;;;;;;;;;;5089476;28;20082;-84
2021/11/15 05:59:49;;;;;;;170.85;60.35;;;;;;;;;;5096801;28;20032;-85
2021/11/15 06:02:15;;;;;;;121.55;65.40;;;;;;;;;;5094937;28;20032;-85
2021/11/15 06:04:41;;;;;;;101.88;48.25;;;;;;;;;;5097849;28;20022;-84
2021/11/15 06:07:07;;;;;;;131.68;48.70;;;;;;;;;;5098601;28;20053;-84
2021/11/15 06:09:33;;;;;;;116.90;45.53;;;;;;;;;;5097685;28;20065;-84
2021/11/15 06:12:00;;;;;;;102.18;45.05;;;;;;;;;;5097862;28;20039;-83
2021/11/15 06:14:26;;;;;;;129.05;44.13;;;;;;;;;;5098619;28;20028;-85
2021/11/15 06:16:52;;;;;;;132.38;42.53;;;;;;;;;;5080328;28;20419;-83
2021/11/15 06:19:18;;;;;;;67.25;41.00;;;;;;;;;;5078386;28;20024;-83
2021/11/15 06:21:44;;;;;;;89.10;40.92;;;;;;;;;;5078458;28;20026;-83
2021/11/15 06:24:10;;;;;;;67.15;39.97;;;;;;;;;;5078209;28;20020;-83
2021/11/15 06:26:36;;;;;;;128.13;40.20;;;;;;;;;;5078091;28;20127;-84
2021/11/15 06:29:21;;;;;;;96.68;40.72;;;;;;;;;;5078287;28;20028;-84
2021/11/15 06:31:47;;;;;;;62.90;39.33;;;;;;;;;;5078120;28;20029;-83
2021/11/15 06:34:14;;;;;;;87.03;39.30;;;;;;;;;;5078253;28;20028;-84
2021/11/15 06:36:40;;;;;;;119.13;37.70;;;;;;;;;;5078047;28;20063;-84
2021/11/15 06:39:06;;;;;;;50.63;36.45;;;;;;;;;;5078193;28;20025;-84
2021/11/15 06:41:33;;;;;;;139.38;38.30;;;;;;;;;;5078303;28;20028;-84
2021/11/15 06:44:17;;;;;;;79.97;37.03;;;;;;;;;;5078229;28;20021;-84
2021/11/15 06:46:43;;;;;;;83.38;36.88;;;;;;;;;;5078018;28;20119;-84
2021/11/15 06:49:09;;;;;;;75.57;37.83;;;;;;;;;;5076900;28;20029;-83
2021/11/15 06:51:35;;;;;;;75.97;38.45;;;;;;;;;;5077803;28;20056;-83
2021/11/15 06:54:01;;;;;;;129.57;40.85;;;;;;;;;;5077848;28;20059;-84
2021/11/15 06:56:27;;;;;;;186.32;50.58;;;;;;;;;;5077552;28;20040;-84
2021/11/15 06:58:53;;;;;;;66.25;40.78;;;;;;;;;;5076608;28;20037;-84
2021/11/15 07:01:19;;;;;;;86.72;39.28;;;;;;;;;;5077774;28;20054;-84
2021/11/15 07:03:47;;;;;;;120.95;40.17;;;;;;;;;;5077673;28;20062;-84
2021/11/15 07:06:13;;;;;;;89.78;40.15;;;;;;;;;;5077589;28;20047;-84
2021/11/15 07:08:39;;;;;;;57.72;38.58;;;;;;;;;;5077636;28;20460;-84
2021/11/15 07:11:05;;;;;;;78.35;36.63;;;;;;;;;;5077547;28;20457;-84
2021/11/15 07:13:31;;;;;;;52.83;34.90;;;;;;;;;;5077696;28;20028;-85
2021/11/15 07:15:57;;;;;;;66.57;39.50;;;;;;;;;;5077619;28;20035;-84
2021/11/15 07:18:26;;;;;;;88.40;37.88;;;;;;;;;;5077626;28;20025;-84
2021/11/15 07:20:52;;;;;;;56.20;35.45;;;;;;;;;;5077467;28;20036;-84
2021/11/15 07:23:18;;;;;;;51.15;37.22;;;;;;;;;;5077440;28;20466;-84
2021/11/15 07:25:44;;;;;;;74.28;45.45;;;;;;;;;;5077435;28;20107;-84
2021/11/15 07:28:10;;;;;;;87.18;44.33;;;;;;;;;;5077120;28;20021;-84
2021/11/15 07:33:41;;;;;;;684.67;206.55;;;;;;;;;;5077691;28;20074;-84
2021/11/15 07:36:07;;;;;;;170.00;66.55;;;;;;;;;;5077379;28;20428;-84
2021/11/15 07:38:33;;;;;;;107.95;66.22;;;;;;;;;;5077476;28;20055;-84
2021/11/15 07:40:59;;;;;;;95.40;48.85;;;;;;;;;;5077606;28;20041;-83
2021/11/15 07:43:25;;;;;;;80.55;51.10;;;;;;;;;;5077271;28;20028;-80
2021/11/15 07:45:52;;;;;;;61.95;41.33;;;;;;;;;;5076622;28;20085;-78
2021/11/15 07:48:18;;;;;;;59.45;38.78;;;;;;;;;;5076806;28;20025;-79
2021/11/15 07:50:44;;;;;;;54.45;37.60;;;;;;;;;;5075910;28;20048;-78
2021/11/15 07:53:10;;;;;;;63.13;38.45;;;;;;;;;;5076612;28;20418;-79
2021/11/15 07:55:37;;;;;;;59.17;35.95;;;;;;;;;;5076027;28;20076;-79
2021/11/15 07:58:04;;;;;;;66.43;39.30;;;;;;;;;;5076927;28;20090;-79
2021/11/15 08:00:31;;;;;;;54.38;37.03;;;;;;;;;;5075448;28;20032;-79
2021/11/15 08:02:57;;;;;;;55.67;37.72;;;;;;;;;;5076783;28;20436;-79
2021/11/15 08:05:24;;;;;;;57.75;37.20;;;;;;;;;;5076634;28;20031;-79
2021/11/15 08:07:50;;;;;;;58.75;37.33;;;;;;;;;;5075915;28;20028;-78
2021/11/15 08:10:17;;;;;;;66.15;38.85;;;;;;;;;;5076559;28;20033;-79
2021/11/15 08:12:48;;;;;;;62.17;38.35;;;;;;;;;;5075771;28;20372;-79
2021/11/15 08:15:33;;;;;;;54.00;36.42;;;;;;;;;;5076724;28;20027;-78
2021/11/15 08:18:00;;;;;;;56.88;35.05;;;;;;;;;;5076713;28;20056;-79
2021/11/15 08:20:27;;;;;;;53.08;37.25;;;;;;;;;;5076703;28;20031;-79
2021/11/15 08:22:56;;;;;;;52.15;36.92;;;;;;;;;;5076406;28;20024;-79
2021/11/15 08:25:41;;;;;;;53.17;35.95;;;;;;;;;;5076537;28;20021;-79
2021/11/15 08:28:07;;;;;;;57.42;36.47;;;;;;;;;;5079440;28;20036;-79
2021/11/15 08:30:33;;;;;;;53.00;36.75;;;;;;;;;;5079929;28;20025;-79
2021/11/15 08:32:59;;;;;;;49.47;36.33;;;;;;;;;;5080101;28;20091;-79
2021/11/15 08:35:25;;;;;;;55.55;38.33;;;;;;;;;;5080282;28;20032;-79
2021/11/15 08:38:11;;;;;;;52.13;38.63;;;;;;;;;;5080000;28;20069;-79
2021/11/15 08:40:37;;;;;;;51.05;37.45;;;;;;;;;;5077748;28;20025;-79
2021/11/15 08:43:04;;;;;;;50.00;35.80;;;;;;;;;;5079896;28;20024;-79
2021/11/15 08:45:30;;;;;;;53.00;36.67;;;;;;;;;;5079640;28;20016;-79
2021/11/15 08:47:56;;;;;;;44.05;33.70;;;;;;;;;;5079021;28;20035;-79
2021/11/15 08:50:22;;;;;;;43.85;33.95;;;;;;;;;;5078719;28;20093;-79
2021/11/15 08:52:49;;;;;;;47.50;35.47;;;;;;;;;;5079602;28;20062;-79
2021/11/15 08:55:15;;;;;;;47.85;34.40;;;;;;;;;;5078862;28;20033;-79
2021/11/15 08:57:41;;;;;;;46.05;34.45;;;;;;;;;;5079632;28;20063;-79
2021/11/15 09:00:07;;;;;;;48.50;35.60;;;;;;;;;;5079354;28;20032;-79
2021/11/15 09:02:33;;;;;;;47.20;35.53;;;;;;;;;;5078525;28;20025;-79
2021/11/15 09:04:59;;;;;;;48.17;35.90;;;;;;;;;;5079594;28;20016;-79
2021/11/15 09:07:26;;;;;;;49.58;34.90;;;;;;;;;;5079470;28;20411;-79
2021/11/15 09:09:52;;;;;;;45.40;34.20;;;;;;;;;;5079716;28;20032;-79
2021/11/15 09:12:18;;;;;;;48.40;34.22;;;;;;;;;;5078570;28;20067;-79
2021/11/15 09:14:44;;;;;;;46.97;33.33;;;;;;;;;;5079374;28;20319;-79
2021/11/15 09:17:10;;;;;;;43.88;31.60;;;;;;;;;;5079534;28;20099;-79
2021/11/15 09:19:38;;;;;;;47.17;32.70;;;;;;;;;;5079433;28;20373;-79
2021/11/15 09:22:04;;;;;;;47.20;33.25;;;;;;;;;;5078142;28;20024;-79
2021/11/15 09:24:31;;;;;;;45.50;33.53;;;;;;;;;;5079190;28;20042;-79
2021/11/15 09:26:58;;;;;;;43.92;30.42;;;;;;;;;;5078117;28;20029;-79
2021/11/15 09:29:24;;;;;;;40.40;30.10;;;;;;;;;;5078877;28;20325;-78
2021/11/15 09:31:50;;;;;;;39.95;28.40;;;;;;;;;;5079063;28;20033;-79
2021/11/15 09:34:16;;;;;;;39.78;28.05;;;;;;;;;;5079167;28;20031;-78
2021/11/15 09:36:43;;;;;;;43.95;30.45;;;;;;;;;;5077775;28;20020;-78
2021/11/15 09:39:09;;;;;;;41.88;30.08;;;;;;;;;;5077937;28;20025;-78
2021/11/15 09:41:36;;;;;;;38.10;28.10;;;;;;;;;;5078929;28;20020;-78
2021/11/15 09:44:02;;;;;;;38.92;26.17;;;;;;;;;;5078699;28;20024;-79
2021/11/15 09:46:29;;;;;;;38.90;26.63;;;;;;;;;;5078530;28;20064;-79
2021/11/15 09:49:00;;;;;;;38.53;26.73;;;;;;;;;;5077601;28;20028;-78
2021/11/15 09:51:26;;;;;;;38.97;26.95;;;;;;;;;;5078011;28;20311;-79
2021/11/15 09:53:53;;;;;;;39.03;26.70;;;;;;;;;;5078477;28;20036;-78
2021/11/15 09:56:20;;;;;;;32.90;24.42;;;;;;;;;;5078567;28;20069;-79
2021/11/15 09:58:46;;;;;;;36.05;25.42;;;;;;;;;;5078357;28;20410;-78
2021/11/15 10:01:13;;;;;;;39.72;26.27;;;;;;;;;;5078478;28;20459;-78
2021/11/15 10:03:39;;;;;;;34.95;24.20;;;;;;;;;;5077679;28;20033;-78
2021/11/15 10:06:06;;;;;;;37.25;25.20;;;;;;;;;;5077347;28;20045;-78
2021/11/15 10:08:42;;;;;;;43.70;28.30;;;;;;;;;;5078244;28;20491;-78
2021/11/15 10:11:10;;;;;;;41.88;28.13;;;;;;;;;;5078188;28;20061;-78
2021/11/15 10:13:36;;;;;;;37.80;26.25;;;;;;;;;;5078460;28;20024;-79
2021/11/15 10:16:13;;;;;;;35.22;23.48;;;;;;;;;;5078250;28;20020;-78
2021/11/15 10:18:39;;;;;;;32.10;21.60;;;;;;;;;;5078008;28;20103;-79
2021/11/15 10:21:07;;;;;;;33.85;23.38;;;;;;;;;;5078076;28;20411;-78
2021/11/15 10:23:35;;;;;;;38.53;24.23;;;;;;;;;;5077088;28;20028;-78
2021/11/15 10:26:08;;;;;;;33.15;22.33;;;;;;;;;;5077947;28;20024;-78
2021/11/15 10:28:34;;;;;;;31.20;22.90;;;;;;;;;;5076829;28;20047;-83
2021/11/15 10:31:00;;;;;;;28.60;21.25;;;;;;;;;;5077018;28;20040;-79
2021/11/15 10:33:46;;;;;;;34.83;23.50;;;;;;;;;;5077780;28;20029;-78
2021/11/15 10:36:13;;;;;;;31.90;23.83;;;;;;;;;;5077718;28;20032;-78
2021/11/15 10:38:40;;;;;;;34.17;23.35;;;;;;;;;;5077507;28;20402;-78
2021/11/15 10:41:17;;;;;;;33.63;24.40;;;;;;;;;;5077377;28;20017;-79
2021/11/15 10:43:43;;;;;;;33.63;22.98;;;;;;;;;;5076514;28;20020;-78
2021/11/15 10:46:10;;;;;;;34.97;23.55;;;;;;;;;;5077620;28;20036;-79
2021/11/15 10:48:46;;;;;;;33.28;22.63;;;;;;;;;;5077203;28;20099;-79
2021/11/15 10:51:14;;;;;;;37.15;25.65;;;;;;;;;;5077383;28;20052;-78
2021/11/15 10:53:54;;;;;;;32.80;23.27;;;;;;;;;;5076554;28;20036;-78
2021/11/15 10:56:36;;;;;;;34.92;23.40;;;;;;;;;;5076575;28;20433;-78
2021/11/15 10:59:12;;;;;;;38.53;25.55;;;;;;;;;;5077389;28;20315;-78
2021/11/15 11:01:39;;;;;;;33.95;23.00;;;;;;;;;;5077223;28;20028;-78
2021/11/15 11:04:12;;;;;;;32.15;20.63;;;;;;;;;;5077687;28;20103;-79
2021/11/15 11:06:56;;;;;;;32.45;21.20;;;;;;;;;;5077261;28;20090;-79
2021/11/15 11:09:36;;;;;;;28.90;21.23;;;;;;;;;;5077124;28;20035;-79
2021/11/15 11:12:23;;;;;;;31.77;20.90;;;;;;;;;;5077354;28;20056;-79
2021/11/15 11:14:51;;;;;;;29.13;20.60;;;;;;;;;;5076462;28;20070;-79
2021/11/15 11:17:17;;;;;;;30.92;19.90;;;;;;;;;;5076335;28;20040;-79
2021/11/15 11:20:25;;;;;;;33.38;21.13;;;;;;;;;;5076007;28;20052;-79
2021/11/15 11:23:21;;;;;;;31.23;20.15;;;;;;;;;;5076798;28;20025;-79
2021/11/15 11:25:47;;;;;;;29.92;20.55;;;;;;;;;;5075989;28;20048;-79
2021/11/15 11:28:26;;;;;;;30.75;19.85;;;;;;;;;;5077089;28;20025;-79
2021/11/15 11:30:52;;;;;;;26.73;18.58;;;;;;;;;;5076888;28;20036;-79
2021/11/15 11:33:18;;;;;;;29.98;18.38;;;;;;;;;;5076933;28;20347;-79
2021/11/15 11:35:45;;;;;;;23.38;17.48;;;;;;;;;;5077172;28;20029;-79
2021/11/15 11:38:11;;;;;;;23.75;16.77;;;;;;;;;;5076828;28;20027;-79
2021/11/15 11:40:39;;;;;;;24.95;16.75;;;;;;;;;;5075884;28;20331;-79
2021/11/15 11:43:05;;;;;;;28.30;16.55;;;;;;;;;;5076840;28;20017;-79
2021/11/15 11:45:31;;;;;;;24.15;15.65;;;;;;;;;;5076551;28;20048;-79
2021/11/15 11:47:57;;;;;;;22.67;15.98;;;;;;;;;;5076767;28;20442;-79
2021/11/15 11:50:23;;;;;;;25.30;15.95;;;;;;;;;;5077014;28;20100;-78
2021/11/15 11:53:06;;;;;;;24.23;16.10;;;;;;;;;;5075897;28;20031;-79
2021/11/15 11:55:33;;;;;;;22.60;14.82;;;;;;;;;;5076773;28;20021;-79
2021/11/15 11:58:18;;;;;;;22.02;15.50;;;;;;;;;;5076646;28;20024;-80
2021/11/15 12:00:49;;;;;;;24.23;16.10;;;;;;;;;;5076976;28;20323;-79
2021/11/15 12:03:15;;;;;;;18.92;13.27;;;;;;;;;;5080989;28;20020;-79
2021/11/15 12:05:41;;;;;;;23.30;14.63;;;;;;;;;;5080676;28;20021;-79
2021/11/15 12:08:09;;;;;;;26.40;14.68;;;;;;;;;;5080649;28;20060;-79
2021/11/15 12:10:44;;;;;;;24.77;15.55;;;;;;;;;;5080622;28;20012;-79
2021/11/15 12:13:11;;;;;;;22.73;15.30;;;;;;;;;;5079793;28;20028;-79
2021/11/15 12:15:40;;;;;;;21.25;14.65;;;;;;;;;;5080528;28;20033;-79
2021/11/15 12:18:09;;;;;;;23.42;15.60;;;;;;;;;;5080371;28;20024;-79
2021/11/15 12:20:55;;;;;;;19.30;13.70;;;;;;;;;;5080402;28;20025;-79
2021/11/15 12:23:21;;;;;;;24.98;15.05;;;;;;;;;;5080256;28;20271;-79
2021/11/15 12:26:05;;;;;;;21.48;13.80;;;;;;;;;;5080169;28;20027;-79
2021/11/15 12:28:32;;;;;;;28.55;16.90;;;;;;;;;;5079040;28;20115;-79
2021/11/15 12:30:58;;;;;;;30.95;19.48;;;;;;;;;;5080122;28;20029;-79
2021/11/15 12:33:26;;;;;;;28.67;17.67;;;;;;;;;;5079036;28;20043;-79
2021/11/15 12:35:55;;;;;;;26.48;15.90;;;;;;;;;;5080196;28;20031;-79
2021/11/15 12:38:33;;;;;;;22.13;15.27;;;;;;;;;;5079987;28;20021;-79
2021/11/15 12:41:00;;;;;;;22.67;13.77;;;;;;;;;;5079219;28;20040;-79
2021/11/15 12:43:26;;;;;;;21.52;16.08;;;;;;;;;;5078882;28;20024;-79
2021/11/15 12:46:07;;;;;;;24.80;15.98;;;;;;;;;;5079789;28;20036;-80
2021/11/15 12:48:46;;;;;;;23.95;16.55;;;;;;;;;;5078706;28;20025;-79
2021/11/15 12:51:17;;;;;;;26.13;16.50;;;;;;;;;;5079922;28;20036;-79
2021/11/15 12:53:44;;;;;;;23.38;14.80;;;;;;;;;;5079679;28;20028;-79
2021/11/15 12:56:14;;;;;;;21.98;15.30;;;;;;;;;;5079686;28;20315;-81
2021/11/15 12:58:48;;;;;;;25.00;15.65;;;;;;;;;;5079747;28;20090;-79
2021/11/15 13:01:15;;;;;;;28.77;17.80;;;;;;;;;;5078518;28;20056;-79
2021/11/15 13:03:42;;;;;;;26.33;16.33;;;;;;;;;;5079500;28;20031;-79
2021/11/15 13:06:11;;;;;;;19.63;14.30;;;;;;;;;;5079609;28;20022;-79
2021/11/15 13:08:37;;;;;;;20.95;15.85;;;;;;;;;;5078425;28;20034;-79
2021/11/15 13:11:04;;;;;;;26.08;17.80;;;;;;;;;;5079529;28;20029;-79
2021/11/15 13:13:30;;;;;;;25.65;17.48;;;;;;;;;;5078199;28;20067;-79
2021/11/15 13:15:56;;;;;;;22.60;15.73;;;;;;;;;;5079342;28;20025;-80
2021/11/15 13:18:22;;;;;;;32.67;17.48;;;;;;;;;;5078941;28;20020;-80
2021/11/15 13:20:48;;;;;;;30.33;18.30;;;;;;;;;;5079205;28;20347;-79
2021/11/15 13:23:14;;;;;;;27.67;17.55;;;;;;;;;;5078275;28;20111;-79
2021/11/15 13:25:40;;;;;;;28.80;17.77;;;;;;;;;;5079203;28;20021;-79
2021/11/15 13:28:06;;;;;;;37.30;18.63;;;;;;;;;;5079216;28;20050;-79
2021/11/15 13:30:33;;;;;;;35.70;19.40;;;;;;;;;;5078956;28;20060;-79
2021/11/15 13:33:01;;;;;;;34.17;19.70;;;;;;;;;;5078913;28;20016;-79
2021/11/15 13:35:27;;;;;;;31.48;19.25;;;;;;;;;;5078198;28;20036;-79
2021/11/15 13:37:59;;;;;;;34.10;19.00;;;;;;;;;;5078203;28;20069;-79
2021/11/15 13:40:25;;;;;;;48.33;22.88;;;;;;;;;;5078901;28;20025;-80
2021/11/15 13:42:51;;;;;;;37.58;21.92;;;;;;;;;;5078136;28;20469;-79
2021/11/15 13:45:17;;;;;;;39.97;23.58;;;;;;;;;;5078673;28;20505;-79
2021/11/15 13:47:44;;;;;;;49.00;23.98;;;;;;;;;;5078946;28;20060;-79
2021/11/15 13:50:10;;;;;;;37.13;23.65;;;;;;;;;;5079592;28;20024;-81
2021/11/15 13:52:36;;;;;;;44.97;26.50;;;;;;;;;;5077911;28;20322;-80
2021/11/15 13:55:03;;;;;;;33.72;21.23;;;;;;;;;;5078167;28;20094;-79
2021/11/15 13:57:29;;;;;;;35.90;21.15;;;;;;;;;;5078970;28;20024;-80
2021/11/15 13:59:56;;;;;;;35.30;21.73;;;;;;;;;;5077555;28;20047;-80
2021/11/15 14:02:22;;;;;;;29.92;20.45;;;;;;;;;;5078948;28;20100;-80
2021/11/15 14:04:48;;;;;;;30.35;19.60;;;;;;;;;;5079126;28;20020;-79
2021/11/15 14:07:18;;;;;;;25.65;17.38;;;;;;;;;;5078659;28;20114;-79
2021/11/15 14:09:44;;;;;;;26.83;16.58;;;;;;;;;;5078688;28;20024;-79
2021/11/15 14:12:11;;;;;;;43.55;27.90;;;;;;;;;;5077558;28;20329;-80
2021/11/15 14:14:37;;;;;;;27.15;16.75;;;;;;;;;;5080992;28;20024;-78
2021/11/15 14:17:03;;;;;;;25.20;15.88;;;;;;;;;;5097312;28;20330;-78
2021/11/15 14:19:29;;;;;;;22.08;16.17;;;;;;;;;;5098073;28;20020;-78
2021/11/15 14:21:58;;;;;;;28.73;16.60;;;;;;;;;;5098174;28;20016;-79
2021/11/15 14:24:25;;;;;;;27.45;17.90;;;;;;;;;;5097683;28;20016;-78
2021/11/15 14:26:51;;;;;;;27.95;18.35;;;;;;;;;;5097700;28;20303;-79
2021/11/15 14:29:18;;;;;;;31.20;19.70;;;;;;;;;;5098050;28;20111;-78
2021/11/15 14:31:44;;;;;;;30.15;20.00;;;;;;;;;;5097578;28;20081;-78
2021/11/15 14:34:10;;;;;;;28.73;17.73;;;;;;;;;;5098226;28;20024;-78
2021/11/15 14:36:36;;;;;;;29.95;18.75;;;;;;;;;;5097925;28;20055;-78